sensor_id;sensor_type;location;lat;lon;timestamp;temperature;humidity
64858;SHT30;51335;51.148;6.950;2022-11-04T00:00:15;10.66;93.62
64858;SHT30;51335;51.148;6.950;2022-11-04T00:00:46;10.60;93.69
64858;SHT30;51335;51.148;6.950;2022-11-04T00:01:16;10.63;93.77
64858;SHT30;51335;51.148;6.950;2022-11-04T00:01:47;10.59;93.83
64858;SHT30;51335;51.148;6.950;2022-11-04T00:02:17;10.59;93.88
64858;SHT30;51335;51.148;6.950;2022-11-04T00:02:48;10.56;93.94
64858;SHT30;51335;51.148;6.950;2022-11-04T00:03:18;10.55;93.94
64858;SHT30;51335;51.148;6.950;2022-11-04T00:03:48;10.58;93.87
64858;SHT30;51335;51.148;6.950;2022-11-04T00:04:21;10.58;93.91
64858;SHT30;51335;51.148;6.950;2022-11-04T00:04:51;10.55;93.88
64858;SHT30;51335;51.148;6.950;2022-11-04T00:05:22;10.53;93.89
64858;SHT30;51335;51.148;6.950;2022-11-04T00:05:52;10.52;93.88
64858;SHT30;51335;51.148;6.950;2022-11-04T00:06:23;10.52;93.91
64858;SHT30;51335;51.148;6.950;2022-11-04T00:06:53;10.46;93.89
64858;SHT30;51335;51.148;6.950;2022-11-04T00:07:24;10.46;93.95
64858;SHT30;51335;51.148;6.950;2022-11-04T00:07:55;10.48;93.91
64858;SHT30;51335;51.148;6.950;2022-11-04T00:08:25;10.49;93.81
64858;SHT30;51335;51.148;6.950;2022-11-04T00:08:56;10.50;93.68
64858;SHT30;51335;51.148;6.950;2022-11-04T00:09:28;10.52;93.47
64858;SHT30;51335;51.148;6.950;2022-11-04T00:09:59;10.50;93.24
64858;SHT30;51335;51.148;6.950;2022-11-04T00:10:29;10.52;93.13
64858;SHT30;51335;51.148;6.950;2022-11-04T00:10:59;10.55;93.05
64858;SHT30;51335;51.148;6.950;2022-11-04T00:11:30;10.50;92.96
64858;SHT30;51335;51.148;6.950;2022-11-04T00:12:00;10.50;92.81
64858;SHT30;51335;51.148;6.950;2022-11-04T00:12:31;10.53;92.82
64858;SHT30;51335;51.148;6.950;2022-11-04T00:13:01;10.59;92.55
64858;SHT30;51335;51.148;6.950;2022-11-04T00:13:31;10.59;92.16
64858;SHT30;51335;51.148;6.950;2022-11-04T00:14:02;10.58;92.08
64858;SHT30;51335;51.148;6.950;2022-11-04T00:14:34;10.56;92.18
64858;SHT30;51335;51.148;6.950;2022-11-04T00:15:05;10.53;92.17
64858;SHT30;51335;51.148;6.950;2022-11-04T00:15:36;10.59;92.16
64858;SHT30;51335;51.148;6.950;2022-11-04T00:16:07;10.53;92.01
64858;SHT30;51335;51.148;6.950;2022-11-04T00:16:37;10.50;92.13
64858;SHT30;51335;51.148;6.950;2022-11-04T00:17:10;10.55;92.23
64858;SHT30;51335;51.148;6.950;2022-11-04T00:17:40;10.49;92.21
64858;SHT30;51335;51.148;6.950;2022-11-04T00:18:10;10.48;92.29
64858;SHT30;51335;51.148;6.950;2022-11-04T00:18:41;10.49;92.39
64858;SHT30;51335;51.148;6.950;2022-11-04T00:19:11;10.49;92.37
64858;SHT30;51335;51.148;6.950;2022-11-04T00:19:41;10.52;92.37
64858;SHT30;51335;51.148;6.950;2022-11-04T00:20:12;10.53;92.31
64858;SHT30;51335;51.148;6.950;2022-11-04T00:20:42;10.49;92.17
64858;SHT30;51335;51.148;6.950;2022-11-04T00:21:12;10.49;92.19
64858;SHT30;51335;51.148;6.950;2022-11-04T00:21:43;10.58;92.10
64858;SHT30;51335;51.148;6.950;2022-11-04T00:22:13;10.52;91.96
64858;SHT30;51335;51.148;6.950;2022-11-04T00:22:47;10.52;92.02
64858;SHT30;51335;51.148;6.950;2022-11-04T00:23:17;10.50;92.07
64858;SHT30;51335;51.148;6.950;2022-11-04T00:23:47;10.53;91.97
64858;SHT30;51335;51.148;6.950;2022-11-04T00:24:17;10.56;91.99
64858;SHT30;51335;51.148;6.950;2022-11-04T00:24:48;10.56;91.86
64858;SHT30;51335;51.148;6.950;2022-11-04T00:25:18;10.52;91.85
64858;SHT30;51335;51.148;6.950;2022-11-04T00:25:48;10.56;92.05
64858;SHT30;51335;51.148;6.950;2022-11-04T00:26:18;10.58;92.06
64858;SHT30;51335;51.148;6.950;2022-11-04T00:26:49;10.58;92.01
64858;SHT30;51335;51.148;6.950;2022-11-04T00:27:20;10.58;92.09
64858;SHT30;51335;51.148;6.950;2022-11-04T00:27:50;10.58;92.03
64858;SHT30;51335;51.148;6.950;2022-11-04T00:28:21;10.59;92.08
64858;SHT30;51335;51.148;6.950;2022-11-04T00:28:51;10.60;92.16
64858;SHT30;51335;51.148;6.950;2022-11-04T00:29:21;10.59;92.02
64858;SHT30;51335;51.148;6.950;2022-11-04T00:29:51;10.58;92.02
64858;SHT30;51335;51.148;6.950;2022-11-04T00:30:22;10.65;92.06
64858;SHT30;51335;51.148;6.950;2022-11-04T00:30:53;10.65;91.87
64858;SHT30;51335;51.148;6.950;2022-11-04T00:31:23;10.62;91.84
64858;SHT30;51335;51.148;6.950;2022-11-04T00:31:54;10.63;92.01
64858;SHT30;51335;51.148;6.950;2022-11-04T00:32:24;10.62;92.08
64858;SHT30;51335;51.148;6.950;2022-11-04T00:32:55;10.63;92.13
64858;SHT30;51335;51.148;6.950;2022-11-04T00:33:25;10.62;92.13
64858;SHT30;51335;51.148;6.950;2022-11-04T00:33:57;10.62;92.13
64858;SHT30;51335;51.148;6.950;2022-11-04T00:34:27;10.60;92.18
64858;SHT30;51335;51.148;6.950;2022-11-04T00:34:57;10.63;92.32
64858;SHT30;51335;51.148;6.950;2022-11-04T00:35:28;10.65;92.26
64858;SHT30;51335;51.148;6.950;2022-11-04T00:35:58;10.66;92.31
64858;SHT30;51335;51.148;6.950;2022-11-04T00:36:28;10.60;92.19
64858;SHT30;51335;51.148;6.950;2022-11-04T00:36:58;10.62;92.29
64858;SHT30;51335;51.148;6.950;2022-11-04T00:37:29;10.69;92.29
64858;SHT30;51335;51.148;6.950;2022-11-04T00:37:59;10.72;91.96
64858;SHT30;51335;51.148;6.950;2022-11-04T00:38:29;10.67;91.59
64858;SHT30;51335;51.148;6.950;2022-11-04T00:39:00;10.69;91.74
64858;SHT30;51335;51.148;6.950;2022-11-04T00:39:30;10.67;91.80
64858;SHT30;51335;51.148;6.950;2022-11-04T00:40:00;10.69;91.80
64858;SHT30;51335;51.148;6.950;2022-11-04T00:40:30;10.67;91.82
64858;SHT30;51335;51.148;6.950;2022-11-04T00:41:00;10.69;91.79
64858;SHT30;51335;51.148;6.950;2022-11-04T00:41:31;10.66;91.76
64858;SHT30;51335;51.148;6.950;2022-11-04T00:42:01;10.63;91.69
64858;SHT30;51335;51.148;6.950;2022-11-04T00:42:31;10.62;91.89
64858;SHT30;51335;51.148;6.950;2022-11-04T00:43:01;10.60;91.88
64858;SHT30;51335;51.148;6.950;2022-11-04T00:43:32;10.55;91.96
64858;SHT30;51335;51.148;6.950;2022-11-04T00:44:03;10.52;92.08
64858;SHT30;51335;51.148;6.950;2022-11-04T00:44:34;10.52;92.22
64858;SHT30;51335;51.148;6.950;2022-11-04T00:45:05;10.55;92.19
64858;SHT30;51335;51.148;6.950;2022-11-04T00:45:35;10.53;92.18
64858;SHT30;51335;51.148;6.950;2022-11-04T00:46:05;10.53;92.21
64858;SHT30;51335;51.148;6.950;2022-11-04T00:46:36;10.52;92.09
64858;SHT30;51335;51.148;6.950;2022-11-04T00:47:06;10.55;92.05
64858;SHT30;51335;51.148;6.950;2022-11-04T00:47:36;10.53;92.04
64858;SHT30;51335;51.148;6.950;2022-11-04T00:48:07;10.48;91.98
64858;SHT30;51335;51.148;6.950;2022-11-04T00:48:37;10.48;92.08
64858;SHT30;51335;51.148;6.950;2022-11-04T00:49:07;10.42;92.06
64858;SHT30;51335;51.148;6.950;2022-11-04T00:49:38;10.42;92.15
64858;SHT30;51335;51.148;6.950;2022-11-04T00:50:08;10.45;92.03
64858;SHT30;51335;51.148;6.950;2022-11-04T00:50:38;10.48;92.04
64858;SHT30;51335;51.148;6.950;2022-11-04T00:51:09;10.50;91.93
64858;SHT30;51335;51.148;6.950;2022-11-04T00:51:39;10.49;91.85
64858;SHT30;51335;51.148;6.950;2022-11-04T00:52:09;10.52;91.83
64858;SHT30;51335;51.148;6.950;2022-11-04T00:52:39;10.53;91.78
64858;SHT30;51335;51.148;6.950;2022-11-04T00:53:10;10.52;91.81
64858;SHT30;51335;51.148;6.950;2022-11-04T00:53:40;10.53;91.86
64858;SHT30;51335;51.148;6.950;2022-11-04T00:54:11;10.50;91.69
64858;SHT30;51335;51.148;6.950;2022-11-04T00:54:41;10.46;91.75
64858;SHT30;51335;51.148;6.950;2022-11-04T00:55:11;10.48;91.93
64858;SHT30;51335;51.148;6.950;2022-11-04T00:55:42;10.53;91.88
64858;SHT30;51335;51.148;6.950;2022-11-04T00:56:12;10.50;91.84
64858;SHT30;51335;51.148;6.950;2022-11-04T00:56:43;10.48;91.85
64858;SHT30;51335;51.148;6.950;2022-11-04T00:57:13;10.45;91.99
64858;SHT30;51335;51.148;6.950;2022-11-04T00:57:44;10.42;92.12
64858;SHT30;51335;51.148;6.950;2022-11-04T00:58:14;10.42;92.19
64858;SHT30;51335;51.148;6.950;2022-11-04T00:58:44;10.39;92.26
64858;SHT30;51335;51.148;6.950;2022-11-04T00:59:15;10.45;92.23
64858;SHT30;51335;51.148;6.950;2022-11-04T00:59:45;10.44;92.15
64858;SHT30;51335;51.148;6.950;2022-11-04T01:00:15;10.48;92.19
64858;SHT30;51335;51.148;6.950;2022-11-04T01:00:46;10.48;92.14
64858;SHT30;51335;51.148;6.950;2022-11-04T01:01:18;10.50;92.19
64858;SHT30;51335;51.148;6.950;2022-11-04T01:01:48;10.44;92.30
64858;SHT30;51335;51.148;6.950;2022-11-04T01:02:18;10.48;92.38
64858;SHT30;51335;51.148;6.950;2022-11-04T01:02:49;10.49;92.45
64858;SHT30;51335;51.148;6.950;2022-11-04T01:03:19;10.45;92.40
64858;SHT30;51335;51.148;6.950;2022-11-04T01:03:51;10.48;92.57
64858;SHT30;51335;51.148;6.950;2022-11-04T01:04:22;10.49;92.40
64858;SHT30;51335;51.148;6.950;2022-11-04T01:04:52;10.53;92.50
64858;SHT30;51335;51.148;6.950;2022-11-04T01:05:22;10.55;92.39
64858;SHT30;51335;51.148;6.950;2022-11-04T01:05:52;10.55;92.41
64858;SHT30;51335;51.148;6.950;2022-11-04T01:06:24;10.59;92.44
64858;SHT30;51335;51.148;6.950;2022-11-04T01:06:54;10.66;92.35
64858;SHT30;51335;51.148;6.950;2022-11-04T01:07:25;10.63;92.11
64858;SHT30;51335;51.148;6.950;2022-11-04T01:07:55;10.62;92.21
64858;SHT30;51335;51.148;6.950;2022-11-04T01:08:25;10.62;92.27
64858;SHT30;51335;51.148;6.950;2022-11-04T01:08:58;10.58;92.37
64858;SHT30;51335;51.148;6.950;2022-11-04T01:09:28;10.56;92.45
64858;SHT30;51335;51.148;6.950;2022-11-04T01:09:59;10.55;92.52
64858;SHT30;51335;51.148;6.950;2022-11-04T01:10:29;10.55;92.63
64858;SHT30;51335;51.148;6.950;2022-11-04T01:11:07;10.59;92.44
64858;SHT30;51335;51.148;6.950;2022-11-04T01:11:38;10.59;92.47
64858;SHT30;51335;51.148;6.950;2022-11-04T01:12:08;10.62;92.36
64858;SHT30;51335;51.148;6.950;2022-11-04T01:12:38;10.58;92.30
64858;SHT30;51335;51.148;6.950;2022-11-04T01:13:10;10.59;92.30
64858;SHT30;51335;51.148;6.950;2022-11-04T01:13:40;10.62;92.31
64858;SHT30;51335;51.148;6.950;2022-11-04T01:14:11;10.59;92.27
64858;SHT30;51335;51.148;6.950;2022-11-04T01:14:41;10.60;92.33
64858;SHT30;51335;51.148;6.950;2022-11-04T01:15:12;10.66;92.36
64858;SHT30;51335;51.148;6.950;2022-11-04T01:15:42;10.70;92.23
64858;SHT30;51335;51.148;6.950;2022-11-04T01:16:12;10.72;92.04
64858;SHT30;51335;51.148;6.950;2022-11-04T01:16:43;10.73;91.74
64858;SHT30;51335;51.148;6.950;2022-11-04T01:17:13;10.76;91.78
64858;SHT30;51335;51.148;6.950;2022-11-04T01:17:43;10.73;91.74
64858;SHT30;51335;51.148;6.950;2022-11-04T01:18:13;10.72;91.89
64858;SHT30;51335;51.148;6.950;2022-11-04T01:18:44;10.77;91.81
64858;SHT30;51335;51.148;6.950;2022-11-04T01:19:14;10.80;91.80
64858;SHT30;51335;51.148;6.950;2022-11-04T01:19:45;10.79;91.88
64858;SHT30;51335;51.148;6.950;2022-11-04T01:20:15;10.77;91.87
64858;SHT30;51335;51.148;6.950;2022-11-04T01:20:45;10.70;91.79
64858;SHT30;51335;51.148;6.950;2022-11-04T01:21:16;10.70;92.01
64858;SHT30;51335;51.148;6.950;2022-11-04T01:21:49;10.73;92.06
64858;SHT30;51335;51.148;6.950;2022-11-04T01:22:20;10.76;91.90
64858;SHT30;51335;51.148;6.950;2022-11-04T01:22:50;10.75;91.98
64858;SHT30;51335;51.148;6.950;2022-11-04T01:23:20;10.77;92.00
64858;SHT30;51335;51.148;6.950;2022-11-04T01:23:50;10.75;91.88
64858;SHT30;51335;51.148;6.950;2022-11-04T01:24:21;10.75;91.99
64858;SHT30;51335;51.148;6.950;2022-11-04T01:24:51;10.72;92.04
64858;SHT30;51335;51.148;6.950;2022-11-04T01:25:21;10.67;92.10
64858;SHT30;51335;51.148;6.950;2022-11-04T01:25:51;10.62;92.22
64858;SHT30;51335;51.148;6.950;2022-11-04T01:26:23;10.60;92.38
64858;SHT30;51335;51.148;6.950;2022-11-04T01:26:54;10.62;92.38
64858;SHT30;51335;51.148;6.950;2022-11-04T01:27:24;10.63;92.54
64858;SHT30;51335;51.148;6.950;2022-11-04T01:27:55;10.63;92.43
64858;SHT30;51335;51.148;6.950;2022-11-04T01:28:25;10.66;92.28
64858;SHT30;51335;51.148;6.950;2022-11-04T01:28:56;10.65;92.34
64858;SHT30;51335;51.148;6.950;2022-11-04T01:29:27;10.69;92.34
64858;SHT30;51335;51.148;6.950;2022-11-04T01:29:57;10.67;92.22
64858;SHT30;51335;51.148;6.950;2022-11-04T01:30:27;10.63;92.15
64858;SHT30;51335;51.148;6.950;2022-11-04T01:30:58;10.66;92.29
64858;SHT30;51335;51.148;6.950;2022-11-04T01:31:30;10.65;92.23
64858;SHT30;51335;51.148;6.950;2022-11-04T01:32:00;10.65;92.34
64858;SHT30;51335;51.148;6.950;2022-11-04T01:32:30;10.63;92.35
64858;SHT30;51335;51.148;6.950;2022-11-04T01:33:00;10.60;92.48
64858;SHT30;51335;51.148;6.950;2022-11-04T01:33:31;10.63;92.36
64858;SHT30;51335;51.148;6.950;2022-11-04T01:34:01;10.59;92.27
64858;SHT30;51335;51.148;6.950;2022-11-04T01:34:31;10.63;92.31
64858;SHT30;51335;51.148;6.950;2022-11-04T01:35:02;10.63;92.29
64858;SHT30;51335;51.148;6.950;2022-11-04T01:35:32;10.63;92.29
64858;SHT30;51335;51.148;6.950;2022-11-04T01:36:04;10.62;92.30
64858;SHT30;51335;51.148;6.950;2022-11-04T01:36:34;10.63;92.34
64858;SHT30;51335;51.148;6.950;2022-11-04T01:37:04;10.60;92.48
64858;SHT30;51335;51.148;6.950;2022-11-04T01:37:35;10.67;92.47
64858;SHT30;51335;51.148;6.950;2022-11-04T01:38:05;10.67;92.29
64858;SHT30;51335;51.148;6.950;2022-11-04T01:38:35;10.67;92.29
64858;SHT30;51335;51.148;6.950;2022-11-04T01:39:06;10.62;92.38
64858;SHT30;51335;51.148;6.950;2022-11-04T01:39:36;10.65;92.45
64858;SHT30;51335;51.148;6.950;2022-11-04T01:40:06;10.66;92.59
64858;SHT30;51335;51.148;6.950;2022-11-04T01:40:39;10.67;92.58
64858;SHT30;51335;51.148;6.950;2022-11-04T01:41:19;10.69;92.41
64858;SHT30;51335;51.148;6.950;2022-11-04T01:41:49;10.73;92.40
64858;SHT30;51335;51.148;6.950;2022-11-04T01:42:21;10.75;92.27
64858;SHT30;51335;51.148;6.950;2022-11-04T01:42:51;10.76;92.26
64858;SHT30;51335;51.148;6.950;2022-11-04T01:43:22;10.77;92.22
64858;SHT30;51335;51.148;6.950;2022-11-04T01:43:55;10.84;92.08
64858;SHT30;51335;51.148;6.950;2022-11-04T01:45:16;10.81;91.85
64858;SHT30;51335;51.148;6.950;2022-11-04T01:45:55;10.80;91.91
64858;SHT30;51335;51.148;6.950;2022-11-04T01:46:46;10.80;91.65
64858;SHT30;51335;51.148;6.950;2022-11-04T01:47:21;10.77;91.71
64858;SHT30;51335;51.148;6.950;2022-11-04T01:48:00;10.83;91.52
64858;SHT30;51335;51.148;6.950;2022-11-04T01:48:33;10.80;91.36
64858;SHT30;51335;51.148;6.950;2022-11-04T01:49:27;10.80;91.39
64858;SHT30;51335;51.148;6.950;2022-11-04T01:50:02;10.77;91.51
64858;SHT30;51335;51.148;6.950;2022-11-04T01:50:35;10.73;91.53
64858;SHT30;51335;51.148;6.950;2022-11-04T01:51:06;10.72;91.57
64858;SHT30;51335;51.148;6.950;2022-11-04T01:51:38;10.67;91.61
64858;SHT30;51335;51.148;6.950;2022-11-04T01:52:12;10.67;91.76
64858;SHT30;51335;51.148;6.950;2022-11-04T01:53:08;10.62;91.85
64858;SHT30;51335;51.148;6.950;2022-11-04T01:53:40;10.60;91.84
64858;SHT30;51335;51.148;6.950;2022-11-04T01:54:12;10.56;91.76
64858;SHT30;51335;51.148;6.950;2022-11-04T01:54:44;10.56;91.80
64858;SHT30;51335;51.148;6.950;2022-11-04T01:55:19;10.50;91.76
64858;SHT30;51335;51.148;6.950;2022-11-04T01:55:51;10.48;91.81
64858;SHT30;51335;51.148;6.950;2022-11-04T01:56:25;10.46;91.89
64858;SHT30;51335;51.148;6.950;2022-11-04T01:56:57;10.42;91.92
64858;SHT30;51335;51.148;6.950;2022-11-04T01:57:34;10.41;92.01
64858;SHT30;51335;51.148;6.950;2022-11-04T01:58:10;10.32;92.07
64858;SHT30;51335;51.148;6.950;2022-11-04T01:58:46;10.32;92.20
64858;SHT30;51335;51.148;6.950;2022-11-04T01:59:21;10.27;92.41
64858;SHT30;51335;51.148;6.950;2022-11-04T01:59:53;10.24;92.43
64858;SHT30;51335;51.148;6.950;2022-11-04T02:00:24;10.19;92.51
64858;SHT30;51335;51.148;6.950;2022-11-04T02:00:54;10.17;92.70
64858;SHT30;51335;51.148;6.950;2022-11-04T02:01:24;10.25;92.64
64858;SHT30;51335;51.148;6.950;2022-11-04T02:01:55;10.21;92.51
64858;SHT30;51335;51.148;6.950;2022-11-04T02:02:25;10.22;92.51
64858;SHT30;51335;51.148;6.950;2022-11-04T02:02:58;10.24;92.46
64858;SHT30;51335;51.148;6.950;2022-11-04T02:03:36;10.22;92.41
64858;SHT30;51335;51.148;6.950;2022-11-04T02:04:08;10.17;92.36
64858;SHT30;51335;51.148;6.950;2022-11-04T02:04:38;10.19;92.48
64858;SHT30;51335;51.148;6.950;2022-11-04T02:05:09;10.14;92.47
64858;SHT30;51335;51.148;6.950;2022-11-04T02:05:40;10.08;92.72
64858;SHT30;51335;51.148;6.950;2022-11-04T02:06:11;10.04;92.74
64858;SHT30;51335;51.148;6.950;2022-11-04T02:06:41;10.04;92.93
64858;SHT30;51335;51.148;6.950;2022-11-04T02:07:11;10.01;93.03
64858;SHT30;51335;51.148;6.950;2022-11-04T02:07:41;10.00;93.03
64858;SHT30;51335;51.148;6.950;2022-11-04T02:08:13;9.98;93.13
64858;SHT30;51335;51.148;6.950;2022-11-04T02:08:44;9.98;93.13
64858;SHT30;51335;51.148;6.950;2022-11-04T02:09:16;9.94;93.32
64858;SHT30;51335;51.148;6.950;2022-11-04T02:09:48;9.91;93.25
64858;SHT30;51335;51.148;6.950;2022-11-04T02:10:19;9.84;93.28
64858;SHT30;51335;51.148;6.950;2022-11-04T02:10:58;9.87;93.47
64858;SHT30;51335;51.148;6.950;2022-11-04T02:11:28;9.84;93.53
64858;SHT30;51335;51.148;6.950;2022-11-04T02:11:59;9.84;93.49
64858;SHT30;51335;51.148;6.950;2022-11-04T02:12:29;9.86;93.46
64858;SHT30;51335;51.148;6.950;2022-11-04T02:13:02;9.83;93.42
64858;SHT30;51335;51.148;6.950;2022-11-04T02:13:35;9.80;93.48
64858;SHT30;51335;51.148;6.950;2022-11-04T02:14:05;9.74;93.58
64858;SHT30;51335;51.148;6.950;2022-11-04T02:14:36;9.76;93.69
64858;SHT30;51335;51.148;6.950;2022-11-04T02:15:06;9.74;93.73
64858;SHT30;51335;51.148;6.950;2022-11-04T02:16:00;9.73;93.84
64858;SHT30;51335;51.148;6.950;2022-11-04T02:16:40;9.71;93.94
64858;SHT30;51335;51.148;6.950;2022-11-04T02:17:55;9.70;93.96
64858;SHT30;51335;51.148;6.950;2022-11-04T02:19:39;9.73;94.17
64858;SHT30;51335;51.148;6.950;2022-11-04T02:24:28;9.83;93.72
64858;SHT30;51335;51.148;6.950;2022-11-04T02:26:49;9.79;93.65
64858;SHT30;51335;51.148;6.950;2022-11-04T02:30:35;9.52;94.35
64858;SHT30;51335;51.148;6.950;2022-11-04T02:33:04;9.56;94.31
64858;SHT30;51335;51.148;6.950;2022-11-04T02:34:49;9.52;94.33
64858;SHT30;51335;51.148;6.950;2022-11-04T02:36:36;9.38;94.49
64858;SHT30;51335;51.148;6.950;2022-11-04T02:37:23;9.36;94.63
64858;SHT30;51335;51.148;6.950;2022-11-04T02:38:13;9.31;94.68
64858;SHT30;51335;51.148;6.950;2022-11-04T02:38:56;9.26;94.70
64858;SHT30;51335;51.148;6.950;2022-11-04T02:39:52;9.21;94.96
64858;SHT30;51335;51.148;6.950;2022-11-04T02:42:11;9.12;95.27
64858;SHT30;51335;51.148;6.950;2022-11-04T02:43:02;9.08;95.31
64858;SHT30;51335;51.148;6.950;2022-11-04T02:43:46;9.12;95.36
64858;SHT30;51335;51.148;6.950;2022-11-04T02:44:20;9.07;95.32
64858;SHT30;51335;51.148;6.950;2022-11-04T02:45:47;9.07;95.35
64858;SHT30;51335;51.148;6.950;2022-11-04T02:47:16;9.04;95.46
64858;SHT30;51335;51.148;6.950;2022-11-04T02:48:11;9.05;95.50
64858;SHT30;51335;51.148;6.950;2022-11-04T02:48:53;9.00;95.54
64858;SHT30;51335;51.148;6.950;2022-11-04T02:50:02;9.01;95.44
64858;SHT30;51335;51.148;6.950;2022-11-04T02:50:40;8.98;95.41
64858;SHT30;51335;51.148;6.950;2022-11-04T02:51:18;8.97;95.50
64858;SHT30;51335;51.148;6.950;2022-11-04T02:51:54;9.00;95.51
64858;SHT30;51335;51.148;6.950;2022-11-04T02:53:16;8.95;95.61
64858;SHT30;51335;51.148;6.950;2022-11-04T02:54:49;8.94;95.53
64858;SHT30;51335;51.148;6.950;2022-11-04T02:55:25;8.92;95.52
64858;SHT30;51335;51.148;6.950;2022-11-04T02:55:57;8.94;95.49
64858;SHT30;51335;51.148;6.950;2022-11-04T02:56:28;8.95;95.42
64858;SHT30;51335;51.148;6.950;2022-11-04T02:57:00;8.98;95.31
64858;SHT30;51335;51.148;6.950;2022-11-04T02:57:34;8.97;95.31
64858;SHT30;51335;51.148;6.950;2022-11-04T02:58:12;8.98;95.28
64858;SHT30;51335;51.148;6.950;2022-11-04T02:58:50;8.95;95.19
64858;SHT30;51335;51.148;6.950;2022-11-04T02:59:28;8.92;95.26
64858;SHT30;51335;51.148;6.950;2022-11-04T03:00:08;8.88;95.34
64858;SHT30;51335;51.148;6.950;2022-11-04T03:00:41;8.95;95.40
64858;SHT30;51335;51.148;6.950;2022-11-04T03:01:13;8.97;95.32
64858;SHT30;51335;51.148;6.950;2022-11-04T03:01:47;9.00;95.19
64858;SHT30;51335;51.148;6.950;2022-11-04T03:02:22;8.95;95.13
64858;SHT30;51335;51.148;6.950;2022-11-04T03:03:09;8.94;95.06
64858;SHT30;51335;51.148;6.950;2022-11-04T03:03:46;8.95;94.97
64858;SHT30;51335;51.148;6.950;2022-11-04T03:04:25;8.94;94.85
64858;SHT30;51335;51.148;6.950;2022-11-04T03:04:57;8.92;94.87
64858;SHT30;51335;51.148;6.950;2022-11-04T03:05:36;8.94;94.83
64858;SHT30;51335;51.148;6.950;2022-11-04T03:06:09;8.89;94.92
64858;SHT30;51335;51.148;6.950;2022-11-04T03:06:43;8.89;95.03
64858;SHT30;51335;51.148;6.950;2022-11-04T03:07:21;8.85;95.09
64858;SHT30;51335;51.148;6.950;2022-11-04T03:07:55;8.85;95.18
64858;SHT30;51335;51.148;6.950;2022-11-04T03:08:32;8.87;95.07
64858;SHT30;51335;51.148;6.950;2022-11-04T03:09:03;8.88;95.02
64858;SHT30;51335;51.148;6.950;2022-11-04T03:09:35;8.85;95.02
64858;SHT30;51335;51.148;6.950;2022-11-04T03:10:12;8.84;95.00
64858;SHT30;51335;51.148;6.950;2022-11-04T03:10:49;8.81;95.07
64858;SHT30;51335;51.148;6.950;2022-11-04T03:11:22;8.84;95.12
64858;SHT30;51335;51.148;6.950;2022-11-04T03:11:58;8.81;95.14
64858;SHT30;51335;51.148;6.950;2022-11-04T03:12:39;8.77;95.13
64858;SHT30;51335;51.148;6.950;2022-11-04T03:13:22;8.70;95.19
64858;SHT30;51335;51.148;6.950;2022-11-04T03:14:37;8.74;95.27
64858;SHT30;51335;51.148;6.950;2022-11-04T03:15:15;8.74;95.32
64858;SHT30;51335;51.148;6.950;2022-11-04T03:15:53;8.75;95.25
64858;SHT30;51335;51.148;6.950;2022-11-04T03:16:42;8.71;95.36
64858;SHT30;51335;51.148;6.950;2022-11-04T03:17:23;8.73;95.36
64858;SHT30;51335;51.148;6.950;2022-11-04T03:18:42;8.77;95.13
64858;SHT30;51335;51.148;6.950;2022-11-04T03:19:32;8.73;95.07
64858;SHT30;51335;51.148;6.950;2022-11-04T03:20:13;8.68;95.12
64858;SHT30;51335;51.148;6.950;2022-11-04T03:20:47;8.65;95.23
64858;SHT30;51335;51.148;6.950;2022-11-04T03:21:18;8.64;95.33
64858;SHT30;51335;51.148;6.950;2022-11-04T03:22:12;8.61;95.28
64858;SHT30;51335;51.148;6.950;2022-11-04T03:22:43;8.59;95.37
64858;SHT30;51335;51.148;6.950;2022-11-04T03:23:14;8.56;95.41
64858;SHT30;51335;51.148;6.950;2022-11-04T03:23:44;8.53;95.48
64858;SHT30;51335;51.148;6.950;2022-11-04T03:24:15;8.52;95.53
64858;SHT30;51335;51.148;6.950;2022-11-04T03:24:46;8.50;95.65
64858;SHT30;51335;51.148;6.950;2022-11-04T03:25:17;8.50;95.69
64858;SHT30;51335;51.148;6.950;2022-11-04T03:25:51;8.47;95.66
64858;SHT30;51335;51.148;6.950;2022-11-04T03:26:32;8.52;95.79
64858;SHT30;51335;51.148;6.950;2022-11-04T03:28:11;8.43;95.86
64858;SHT30;51335;51.148;6.950;2022-11-04T03:28:59;8.37;95.95
64858;SHT30;51335;51.148;6.950;2022-11-04T03:29:36;8.37;96.09
64858;SHT30;51335;51.148;6.950;2022-11-04T03:30:16;8.37;96.18
64858;SHT30;51335;51.148;6.950;2022-11-04T03:30:48;8.34;96.15
64858;SHT30;51335;51.148;6.950;2022-11-04T03:31:26;8.37;96.22
64858;SHT30;51335;51.148;6.950;2022-11-04T03:32:12;8.34;96.32
64858;SHT30;51335;51.148;6.950;2022-11-04T03:33:50;8.39;96.17
64858;SHT30;51335;51.148;6.950;2022-11-04T03:34:20;8.40;96.17
64858;SHT30;51335;51.148;6.950;2022-11-04T03:34:51;8.39;96.27
64858;SHT30;51335;51.148;6.950;2022-11-04T03:35:21;8.40;96.22
64858;SHT30;51335;51.148;6.950;2022-11-04T03:35:52;8.37;96.14
64858;SHT30;51335;51.148;6.950;2022-11-04T03:36:22;8.33;96.13
64858;SHT30;51335;51.148;6.950;2022-11-04T03:36:53;8.39;96.18
64858;SHT30;51335;51.148;6.950;2022-11-04T03:37:23;8.42;96.10
64858;SHT30;51335;51.148;6.950;2022-11-04T03:37:54;8.42;96.03
64858;SHT30;51335;51.148;6.950;2022-11-04T03:38:24;8.40;95.97
64858;SHT30;51335;51.148;6.950;2022-11-04T03:38:54;8.36;96.05
64858;SHT30;51335;51.148;6.950;2022-11-04T03:39:24;8.34;96.03
64858;SHT30;51335;51.148;6.950;2022-11-04T03:39:55;8.34;96.20
64858;SHT30;51335;51.148;6.950;2022-11-04T03:40:25;8.32;96.11
64858;SHT30;51335;51.148;6.950;2022-11-04T03:40:58;8.30;96.22
64858;SHT30;51335;51.148;6.950;2022-11-04T03:41:34;8.29;96.26
64858;SHT30;51335;51.148;6.950;2022-11-04T03:42:08;8.25;96.24
64858;SHT30;51335;51.148;6.950;2022-11-04T03:42:44;8.23;96.31
64858;SHT30;51335;51.148;6.950;2022-11-04T03:43:21;8.22;96.33
64858;SHT30;51335;51.148;6.950;2022-11-04T03:43:53;8.21;96.39
64858;SHT30;51335;51.148;6.950;2022-11-04T03:44:23;8.21;96.44
64858;SHT30;51335;51.148;6.950;2022-11-04T03:44:55;8.22;96.48
64858;SHT30;51335;51.148;6.950;2022-11-04T03:45:26;8.23;96.51
64858;SHT30;51335;51.148;6.950;2022-11-04T03:45:56;8.22;96.38
64858;SHT30;51335;51.148;6.950;2022-11-04T03:46:27;8.19;96.37
64858;SHT30;51335;51.148;6.950;2022-11-04T03:46:57;8.19;96.49
64858;SHT30;51335;51.148;6.950;2022-11-04T03:47:29;8.23;96.51
64858;SHT30;51335;51.148;6.950;2022-11-04T03:47:59;8.22;96.43
64858;SHT30;51335;51.148;6.950;2022-11-04T03:48:30;8.23;96.48
64858;SHT30;51335;51.148;6.950;2022-11-04T03:49:01;8.22;96.47
64858;SHT30;51335;51.148;6.950;2022-11-04T03:49:32;8.22;96.47
64858;SHT30;51335;51.148;6.950;2022-11-04T03:50:08;8.23;96.42
64858;SHT30;51335;51.148;6.950;2022-11-04T03:50:45;8.19;96.47
64858;SHT30;51335;51.148;6.950;2022-11-04T03:51:15;8.19;96.43
64858;SHT30;51335;51.148;6.950;2022-11-04T03:51:46;8.25;96.40
64858;SHT30;51335;51.148;6.950;2022-11-04T03:52:17;8.23;96.25
64858;SHT30;51335;51.148;6.950;2022-11-04T03:52:48;8.22;96.24
64858;SHT30;51335;51.148;6.950;2022-11-04T03:53:21;8.19;96.22
64858;SHT30;51335;51.148;6.950;2022-11-04T03:53:52;8.17;96.16